sensor_id;sensor_type;location;lat;lon;timestamp;P1;durP1;ratioP1;P2;durP2;ratioP2
35276;SDS011;21401;50.878;8.050;2022-10-16T00:00:40;11.90;;;5.32;;
35276;SDS011;21401;50.878;8.050;2022-10-16T00:03:07;7.22;;;5.22;;
35276;SDS011;21401;50.878;8.050;2022-10-16T00:05:37;10.18;;;4.90;;
35276;SDS011;21401;50.878;8.050;2022-10-16T00:08:05;15.07;;;5.77;;
35276;SDS011;21401;50.878;8.050;2022-10-16T00:10:31;7.63;;;4.65;;
35276;SDS011;21401;50.878;8.050;2022-10-16T00:13:02;6.70;;;5.10;;
35276;SDS011;21401;50.878;8.050;2022-10-16T00:15:28;11.88;;;6.00;;
35276;SDS011;21401;50.878;8.050;2022-10-16T00:17:53;10.32;;;4.95;;
35276;SDS011;21401;50.878;8.050;2022-10-16T00:20:19;6.18;;;5.13;;
35276;SDS011;21401;50.878;8.050;2022-10-16T00:22:47;10.57;;;4.72;;
35276;SDS011;21401;50.878;8.050;2022-10-16T00:25:15;13.45;;;6.07;;
35276;SDS011;21401;50.878;8.050;2022-10-16T00:27:43;9.35;;;5.45;;
35276;SDS011;21401;50.878;8.050;2022-10-16T00:30:11;13.55;;;5.63;;
35276;SDS011;21401;50.878;8.050;2022-10-16T00:32:36;10.75;;;5.38;;
35276;SDS011;21401;50.878;8.050;2022-10-16T00:35:02;10.55;;;5.50;;
35276;SDS011;21401;50.878;8.050;2022-10-16T00:37:28;6.97;;;5.53;;
35276;SDS011;21401;50.878;8.050;2022-10-16T00:39:56;9.43;;;5.45;;
35276;SDS011;21401;50.878;8.050;2022-10-16T00:42:22;11.38;;;4.88;;
35276;SDS011;21401;50.878;8.050;2022-10-16T00:47:35;13.48;;;4.60;;
35276;SDS011;21401;50.878;8.050;2022-10-16T00:52:54;9.05;;;4.20;;
35276;SDS011;21401;50.878;8.050;2022-10-16T00:55:21;8.60;;;4.65;;
35276;SDS011;21401;50.878;8.050;2022-10-16T00:57:50;9.90;;;4.57;;
35276;SDS011;21401;50.878;8.050;2022-10-16T01:00:22;7.30;;;4.30;;
35276;SDS011;21401;50.878;8.050;2022-10-16T01:02:56;4.45;;;4.05;;
35276;SDS011;21401;50.878;8.050;2022-10-16T01:05:24;6.57;;;4.38;;
35276;SDS011;21401;50.878;8.050;2022-10-16T01:08:04;9.13;;;4.00;;
35276;SDS011;21401;50.878;8.050;2022-10-16T01:13:31;10.10;;;4.70;;
35276;SDS011;21401;50.878;8.050;2022-10-16T01:16:13;5.57;;;4.35;;
35276;SDS011;21401;50.878;8.050;2022-10-16T01:21:16;16.77;;;5.53;;
35276;SDS011;21401;50.878;8.050;2022-10-16T01:26:32;5.88;;;2.63;;
35276;SDS011;21401;50.878;8.050;2022-10-16T01:29:14;3.10;;;2.80;;
35276;SDS011;21401;50.878;8.050;2022-10-16T01:31:56;6.85;;;3.30;;
35276;SDS011;21401;50.878;8.050;2022-10-16T01:34:33;8.88;;;3.65;;
35276;SDS011;21401;50.878;8.050;2022-10-16T01:37:07;10.00;;;3.47;;
35276;SDS011;21401;50.878;8.050;2022-10-16T01:39:42;9.77;;;4.43;;
35276;SDS011;21401;50.878;8.050;2022-10-16T01:42:16;8.57;;;3.00;;
35276;SDS011;21401;50.878;8.050;2022-10-16T01:44:49;8.35;;;3.90;;
35276;SDS011;21401;50.878;8.050;2022-10-16T01:47:17;8.40;;;3.97;;
35276;SDS011;21401;50.878;8.050;2022-10-16T01:49:47;8.13;;;3.05;;
35276;SDS011;21401;50.878;8.050;2022-10-16T01:52:19;14.32;;;3.42;;
35276;SDS011;21401;50.878;8.050;2022-10-16T01:54:49;5.90;;;2.47;;
35276;SDS011;21401;50.878;8.050;2022-10-16T01:57:20;7.83;;;3.50;;
35276;SDS011;21401;50.878;8.050;2022-10-16T01:59:49;4.18;;;3.25;;
35276;SDS011;21401;50.878;8.050;2022-10-16T02:02:19;10.85;;;3.92;;
35276;SDS011;21401;50.878;8.050;2022-10-16T02:04:47;5.93;;;3.53;;
35276;SDS011;21401;50.878;8.050;2022-10-16T02:07:18;14.35;;;3.88;;
35276;SDS011;21401;50.878;8.050;2022-10-16T02:09:44;7.60;;;3.65;;
35276;SDS011;21401;50.878;8.050;2022-10-16T02:12:12;8.25;;;3.70;;
35276;SDS011;21401;50.878;8.050;2022-10-16T02:14:47;4.35;;;3.22;;
35276;SDS011;21401;50.878;8.050;2022-10-16T02:17:15;8.68;;;3.72;;
35276;SDS011;21401;50.878;8.050;2022-10-16T02:19:42;5.57;;;3.30;;
35276;SDS011;21401;50.878;8.050;2022-10-16T02:22:12;5.72;;;3.20;;
35276;SDS011;21401;50.878;8.050;2022-10-16T02:25:29;10.90;;;4.40;;
35276;SDS011;21401;50.878;8.050;2022-10-16T02:27:43;5.15;;;3.22;;
35276;SDS011;21401;50.878;8.050;2022-10-16T02:30:15;6.63;;;3.00;;
35276;SDS011;21401;50.878;8.050;2022-10-16T02:32:51;5.20;;;3.33;;
35276;SDS011;21401;50.878;8.050;2022-10-16T02:35:18;4.93;;;3.90;;
35276;SDS011;21401;50.878;8.050;2022-10-16T02:37:46;9.27;;;4.32;;
35276;SDS011;21401;50.878;8.050;2022-10-16T02:40:16;5.05;;;3.85;;
35276;SDS011;21401;50.878;8.050;2022-10-16T02:42:49;7.55;;;3.75;;
35276;SDS011;21401;50.878;8.050;2022-10-16T02:45:18;7.85;;;3.90;;
35276;SDS011;21401;50.878;8.050;2022-10-16T02:47:47;8.43;;;3.67;;
35276;SDS011;21401;50.878;8.050;2022-10-16T02:50:15;5.63;;;3.80;;
35276;SDS011;21401;50.878;8.050;2022-10-16T02:52:41;4.50;;;3.55;;
35276;SDS011;21401;50.878;8.050;2022-10-16T02:55:06;9.23;;;3.38;;
35276;SDS011;21401;50.878;8.050;2022-10-16T02:57:32;6.07;;;3.72;;
35276;SDS011;21401;50.878;8.050;2022-10-16T02:59:58;6.35;;;3.47;;
35276;SDS011;21401;50.878;8.050;2022-10-16T03:02:23;11.00;;;3.80;;
35276;SDS011;21401;50.878;8.050;2022-10-16T03:04:49;6.95;;;3.35;;
35276;SDS011;21401;50.878;8.050;2022-10-16T03:07:14;10.23;;;3.55;;
35276;SDS011;21401;50.878;8.050;2022-10-16T03:09:40;8.82;;;3.20;;
35276;SDS011;21401;50.878;8.050;2022-10-16T03:12:09;4.75;;;3.25;;
35276;SDS011;21401;50.878;8.050;2022-10-16T03:14:39;6.72;;;3.20;;
35276;SDS011;21401;50.878;8.050;2022-10-16T03:17:05;4.47;;;2.92;;
35276;SDS011;21401;50.878;8.050;2022-10-16T03:19:33;7.32;;;3.75;;
35276;SDS011;21401;50.878;8.050;2022-10-16T03:22:01;8.70;;;3.47;;
35276;SDS011;21401;50.878;8.050;2022-10-16T03:24:29;6.95;;;3.83;;
35276;SDS011;21401;50.878;8.050;2022-10-16T03:26:55;18.95;;;3.17;;
35276;SDS011;21401;50.878;8.050;2022-10-16T03:29:25;7.85;;;3.53;;
35276;SDS011;21401;50.878;8.050;2022-10-16T03:31:56;8.07;;;3.33;;
35276;SDS011;21401;50.878;8.050;2022-10-16T03:34:24;10.38;;;4.05;;
35276;SDS011;21401;50.878;8.050;2022-10-16T03:36:52;13.52;;;3.72;;
35276;SDS011;21401;50.878;8.050;2022-10-16T03:39:23;11.27;;;3.55;;
35276;SDS011;21401;50.878;8.050;2022-10-16T03:41:50;12.13;;;3.72;;
35276;SDS011;21401;50.878;8.050;2022-10-16T03:44:16;7.93;;;3.58;;
35276;SDS011;21401;50.878;8.050;2022-10-16T03:46:44;11.68;;;3.70;;
35276;SDS011;21401;50.878;8.050;2022-10-16T03:49:09;5.30;;;3.60;;
35276;SDS011;21401;50.878;8.050;2022-10-16T03:51:37;5.78;;;3.70;;
35276;SDS011;21401;50.878;8.050;2022-10-16T03:54:05;8.73;;;3.63;;
35276;SDS011;21401;50.878;8.050;2022-10-16T03:56:33;9.65;;;3.33;;
35276;SDS011;21401;50.878;8.050;2022-10-16T03:58:58;6.20;;;3.28;;
35276;SDS011;21401;50.878;8.050;2022-10-16T04:01:24;6.95;;;3.40;;
35276;SDS011;21401;50.878;8.050;2022-10-16T04:03:51;11.00;;;3.65;;
35276;SDS011;21401;50.878;8.050;2022-10-16T04:06:22;10.52;;;3.20;;
35276;SDS011;21401;50.878;8.050;2022-10-16T04:08:47;7.50;;;4.13;;
35276;SDS011;21401;50.878;8.050;2022-10-16T04:11:13;6.38;;;4.25;;
35276;SDS011;21401;50.878;8.050;2022-10-16T04:13:38;6.63;;;3.38;;
35276;SDS011;21401;50.878;8.050;2022-10-16T04:16:04;9.38;;;4.90;;
35276;SDS011;21401;50.878;8.050;2022-10-16T04:18:29;8.02;;;3.85;;
35276;SDS011;21401;50.878;8.050;2022-10-16T04:20:55;7.88;;;3.80;;
35276;SDS011;21401;50.878;8.050;2022-10-16T04:23:21;6.60;;;4.10;;
35276;SDS011;21401;50.878;8.050;2022-10-16T04:25:47;3.58;;;3.03;;
35276;SDS011;21401;50.878;8.050;2022-10-16T04:28:13;3.70;;;2.88;;
35276;SDS011;21401;50.878;8.050;2022-10-16T04:30:41;7.63;;;3.03;;
35276;SDS011;21401;50.878;8.050;2022-10-16T04:33:11;4.65;;;3.60;;
35276;SDS011;21401;50.878;8.050;2022-10-16T04:35:38;4.05;;;2.65;;
35276;SDS011;21401;50.878;8.050;2022-10-16T04:38:03;2.92;;;2.30;;
35276;SDS011;21401;50.878;8.050;2022-10-16T04:40:31;5.30;;;2.28;;
35276;SDS011;21401;50.878;8.050;2022-10-16T04:42:58;2.67;;;2.38;;
35276;SDS011;21401;50.878;8.050;2022-10-16T04:45:24;4.22;;;1.73;;
35276;SDS011;21401;50.878;8.050;2022-10-16T04:47:52;5.82;;;1.90;;
35276;SDS011;21401;50.878;8.050;2022-10-16T04:50:17;2.17;;;2.00;;
35276;SDS011;21401;50.878;8.050;2022-10-16T04:52:45;5.05;;;2.03;;
35276;SDS011;21401;50.878;8.050;2022-10-16T04:55:11;5.53;;;1.73;;
35276;SDS011;21401;50.878;8.050;2022-10-16T04:57:36;2.15;;;1.60;;
35276;SDS011;21401;50.878;8.050;2022-10-16T05:00:02;4.72;;;1.60;;
35276;SDS011;21401;50.878;8.050;2022-10-16T05:02:28;4.18;;;1.63;;
35276;SDS011;21401;50.878;8.050;2022-10-16T05:04:54;6.90;;;1.58;;
35276;SDS011;21401;50.878;8.050;2022-10-16T05:07:19;6.80;;;1.77;;
35276;SDS011;21401;50.878;8.050;2022-10-16T05:09:45;8.10;;;2.03;;
35276;SDS011;21401;50.878;8.050;2022-10-16T05:12:13;1.90;;;1.70;;
35276;SDS011;21401;50.878;8.050;2022-10-16T05:14:38;10.68;;;2.42;;
35276;SDS011;21401;50.878;8.050;2022-10-16T05:17:06;4.97;;;2.00;;
35276;SDS011;21401;50.878;8.050;2022-10-16T05:19:34;4.63;;;2.08;;
35276;SDS011;21401;50.878;8.050;2022-10-16T05:22:00;4.03;;;1.63;;
35276;SDS011;21401;50.878;8.050;2022-10-16T05:24:28;8.63;;;2.03;;
35276;SDS011;21401;50.878;8.050;2022-10-16T05:26:53;6.30;;;2.42;;
35276;SDS011;21401;50.878;8.050;2022-10-16T05:29:19;6.13;;;2.28;;
35276;SDS011;21401;50.878;8.050;2022-10-16T05:31:54;3.28;;;2.30;;
35276;SDS011;21401;50.878;8.050;2022-10-16T05:34:20;7.05;;;2.50;;
35276;SDS011;21401;50.878;8.050;2022-10-16T05:36:45;7.90;;;3.60;;
35276;SDS011;21401;50.878;8.050;2022-10-16T05:39:11;6.75;;;2.97;;
35276;SDS011;21401;50.878;8.050;2022-10-16T05:41:41;4.80;;;3.20;;
35276;SDS011;21401;50.878;8.050;2022-10-16T05:44:09;4.80;;;2.70;;
35276;SDS011;21401;50.878;8.050;2022-10-16T05:46:39;2.78;;;2.20;;
35276;SDS011;21401;50.878;8.050;2022-10-16T05:49:05;2.83;;;1.88;;
35276;SDS011;21401;50.878;8.050;2022-10-16T05:51:33;6.93;;;2.08;;
35276;SDS011;21401;50.878;8.050;2022-10-16T05:54:00;4.35;;;2.45;;
35276;SDS011;21401;50.878;8.050;2022-10-16T05:56:28;4.78;;;2.28;;
35276;SDS011;21401;50.878;8.050;2022-10-16T05:58:54;5.35;;;2.90;;
35276;SDS011;21401;50.878;8.050;2022-10-16T06:01:20;6.20;;;2.70;;
35276;SDS011;21401;50.878;8.050;2022-10-16T06:03:48;5.07;;;2.92;;
35276;SDS011;21401;50.878;8.050;2022-10-16T06:06:20;6.90;;;3.50;;
35276;SDS011;21401;50.878;8.050;2022-10-16T06:08:48;5.80;;;2.92;;
35276;SDS011;21401;50.878;8.050;2022-10-16T06:11:16;7.55;;;2.70;;
35276;SDS011;21401;50.878;8.050;2022-10-16T06:13:50;3.45;;;2.10;;
35276;SDS011;21401;50.878;8.050;2022-10-16T06:16:22;5.60;;;2.08;;
35276;SDS011;21401;50.878;8.050;2022-10-16T06:18:50;7.90;;;1.90;;
35276;SDS011;21401;50.878;8.050;2022-10-16T06:21:18;2.60;;;1.63;;
35276;SDS011;21401;50.878;8.050;2022-10-16T06:23:45;2.88;;;1.77;;
35276;SDS011;21401;50.878;8.050;2022-10-16T06:26:12;4.72;;;1.23;;
35276;SDS011;21401;50.878;8.050;2022-10-16T06:28:41;4.57;;;1.48;;
35276;SDS011;21401;50.878;8.050;2022-10-16T06:31:07;10.10;;;2.33;;
35276;SDS011;21401;50.878;8.050;2022-10-16T06:33:34;2.45;;;1.60;;
35276;SDS011;21401;50.878;8.050;2022-10-16T06:36:04;2.42;;;1.88;;
35276;SDS011;21401;50.878;8.050;2022-10-16T06:38:33;3.40;;;2.17;;
35276;SDS011;21401;50.878;8.050;2022-10-16T06:40:58;3.10;;;1.60;;
35276;SDS011;21401;50.878;8.050;2022-10-16T06:43:24;5.72;;;3.63;;
35276;SDS011;21401;50.878;8.050;2022-10-16T06:45:54;4.45;;;1.85;;
35276;SDS011;21401;50.878;8.050;2022-10-16T06:48:20;8.60;;;1.50;;
35276;SDS011;21401;50.878;8.050;2022-10-16T06:53:25;2.88;;;1.00;;
35276;SDS011;21401;50.878;8.050;2022-10-16T06:55:53;3.17;;;1.00;;
35276;SDS011;21401;50.878;8.050;2022-10-16T06:58:18;2.47;;;1.17;;
35276;SDS011;21401;50.878;8.050;2022-10-16T07:00:44;2.92;;;0.80;;
35276;SDS011;21401;50.878;8.050;2022-10-16T07:03:10;6.55;;;1.00;;
35276;SDS011;21401;50.878;8.050;2022-10-16T07:05:42;3.35;;;0.80;;
35276;SDS011;21401;50.878;8.050;2022-10-16T07:08:08;1.17;;;0.80;;
35276;SDS011;21401;50.878;8.050;2022-10-16T07:10:36;2.05;;;0.80;;
35276;SDS011;21401;50.878;8.050;2022-10-16T07:13:02;6.22;;;0.52;;
35276;SDS011;21401;50.878;8.050;2022-10-16T07:15:32;1.48;;;0.52;;
35276;SDS011;21401;50.878;8.050;2022-10-16T07:17:58;1.45;;;0.65;;
35276;SDS011;21401;50.878;8.050;2022-10-16T07:20:26;0.90;;;0.50;;
35276;SDS011;21401;50.878;8.050;2022-10-16T07:22:51;3.63;;;0.68;;
35276;SDS011;21401;50.878;8.050;2022-10-16T07:25:17;2.95;;;0.60;;
35276;SDS011;21401;50.878;8.050;2022-10-16T07:27:42;1.05;;;0.75;;
35276;SDS011;21401;50.878;8.050;2022-10-16T07:30:08;1.67;;;0.70;;
35276;SDS011;21401;50.878;8.050;2022-10-16T07:32:36;3.38;;;0.90;;
35276;SDS011;21401;50.878;8.050;2022-10-16T07:35:02;3.88;;;1.30;;
35276;SDS011;21401;50.878;8.050;2022-10-16T07:37:28;1.48;;;0.70;;
35276;SDS011;21401;50.878;8.050;2022-10-16T07:39:56;1.25;;;0.73;;
35276;SDS011;21401;50.878;8.050;2022-10-16T07:42:24;1.17;;;0.75;;
35276;SDS011;21401;50.878;8.050;2022-10-16T07:44:50;2.60;;;0.50;;
35276;SDS011;21401;50.878;8.050;2022-10-16T07:47:15;1.33;;;0.70;;
35276;SDS011;21401;50.878;8.050;2022-10-16T07:49:41;1.65;;;0.80;;
35276;SDS011;21401;50.878;8.050;2022-10-16T07:52:06;1.95;;;0.73;;
35276;SDS011;21401;50.878;8.050;2022-10-16T07:54:32;2.42;;;0.90;;
35276;SDS011;21401;50.878;8.050;2022-10-16T07:57:00;1.45;;;0.68;;
35276;SDS011;21401;50.878;8.050;2022-10-16T07:59:25;4.35;;;0.70;;
35276;SDS011;21401;50.878;8.050;2022-10-16T08:01:51;2.55;;;0.55;;
35276;SDS011;21401;50.878;8.050;2022-10-16T08:04:16;0.43;;;0.40;;
35276;SDS011;21401;50.878;8.050;2022-10-16T08:06:42;1.40;;;0.70;;
35276;SDS011;21401;50.878;8.050;2022-10-16T08:09:08;1.13;;;0.40;;
35276;SDS011;21401;50.878;8.050;2022-10-16T08:11:34;1.80;;;0.60;;
35276;SDS011;21401;50.878;8.050;2022-10-16T08:14:00;3.90;;;0.68;;
35276;SDS011;21401;50.878;8.050;2022-10-16T08:16:25;0.98;;;0.75;;
35276;SDS011;21401;50.878;8.050;2022-10-16T08:18:51;4.80;;;0.93;;
35276;SDS011;21401;50.878;8.050;2022-10-16T08:21:20;1.02;;;0.50;;
35276;SDS011;21401;50.878;8.050;2022-10-16T08:23:48;2.03;;;0.70;;
35276;SDS011;21401;50.878;8.050;2022-10-16T08:26:15;0.85;;;0.57;;
35276;SDS011;21401;50.878;8.050;2022-10-16T08:28:40;1.70;;;0.75;;
35276;SDS011;21401;50.878;8.050;2022-10-16T08:31:09;3.42;;;0.70;;
35276;SDS011;21401;50.878;8.050;2022-10-16T08:33:37;2.38;;;0.60;;
35276;SDS011;21401;50.878;8.050;2022-10-16T08:36:04;2.40;;;0.82;;
35276;SDS011;21401;50.878;8.050;2022-10-16T08:38:33;2.67;;;0.90;;
35276;SDS011;21401;50.878;8.050;2022-10-16T08:44:00;2.90;;;0.90;;
35276;SDS011;21401;50.878;8.050;2022-10-16T08:46:42;3.08;;;0.70;;
35276;SDS011;21401;50.878;8.050;2022-10-16T08:49:17;2.88;;;0.70;;
35276;SDS011;21401;50.878;8.050;2022-10-16T08:51:43;1.00;;;0.50;;
35276;SDS011;21401;50.878;8.050;2022-10-16T08:56:56;3.50;;;1.45;;
35276;SDS011;21401;50.878;8.050;2022-10-16T08:59:26;3.47;;;0.57;;
35276;SDS011;21401;50.878;8.050;2022-10-16T09:01:51;2.33;;;0.60;;
35276;SDS011;21401;50.878;8.050;2022-10-16T09:07:02;3.60;;;0.40;;
35276;SDS011;21401;50.878;8.050;2022-10-16T09:09:53;2.55;;;0.57;;
35276;SDS011;21401;50.878;8.050;2022-10-16T09:18:10;1.75;;;0.50;;
35276;SDS011;21401;50.878;8.050;2022-10-16T09:20:48;1.00;;;0.47;;
35276;SDS011;21401;50.878;8.050;2022-10-16T09:25:59;2.83;;;0.63;;
35276;SDS011;21401;50.878;8.050;2022-10-16T09:28:25;3.92;;;0.60;;
35276;SDS011;21401;50.878;8.050;2022-10-16T09:30:53;1.77;;;0.60;;
35276;SDS011;21401;50.878;8.050;2022-10-16T09:33:20;4.80;;;0.68;;
35276;SDS011;21401;50.878;8.050;2022-10-16T09:35:53;1.50;;;0.68;;
35276;SDS011;21401;50.878;8.050;2022-10-16T09:38:24;0.77;;;0.50;;
35276;SDS011;21401;50.878;8.050;2022-10-16T09:41:11;2.65;;;0.50;;
35276;SDS011;21401;50.878;8.050;2022-10-16T09:46:21;3.75;;;0.88;;
35276;SDS011;21401;50.878;8.050;2022-10-16T09:49:02;0.77;;;0.50;;
35276;SDS011;21401;50.878;8.050;2022-10-16T09:51:33;0.30;;;0.30;;
35276;SDS011;21401;50.878;8.050;2022-10-16T09:54:21;1.15;;;0.55;;
35276;SDS011;21401;50.878;8.050;2022-10-16T09:56:46;2.05;;;0.50;;
35276;SDS011;21401;50.878;8.050;2022-10-16T09:59:20;3.03;;;0.60;;
35276;SDS011;21401;50.878;8.050;2022-10-16T10:01:52;0.82;;;0.40;;
35276;SDS011;21401;50.878;8.050;2022-10-16T10:04:20;1.63;;;0.57;;
35276;SDS011;21401;50.878;8.050;2022-10-16T10:06:54;4.05;;;0.50;;
35276;SDS011;21401;50.878;8.050;2022-10-16T10:09:24;3.38;;;0.40;;
35276;SDS011;21401;50.878;8.050;2022-10-16T10:11:59;0.45;;;0.43;;
35276;SDS011;21401;50.878;8.050;2022-10-16T10:14:28;0.60;;;0.47;;
35276;SDS011;21401;50.878;8.050;2022-10-16T10:19:36;1.75;;;0.40;;
35276;SDS011;21401;50.878;8.050;2022-10-16T10:33:57;1.92;;;0.40;;
35276;SDS011;21401;50.878;8.050;2022-10-16T10:50:25;3.08;;;0.85;;
35276;SDS011;21401;50.878;8.050;2022-10-16T10:53:10;1.13;;;0.38;;
35276;SDS011;21401;50.878;8.050;2022-10-16T10:56:30;2.53;;;0.88;;
35276;SDS011;21401;50.878;8.050;2022-10-16T10:59:31;1.20;;;0.50;;
35276;SDS011;21401;50.878;8.050;2022-10-16T11:07:14;1.35;;;0.40;;
35276;SDS011;21401;50.878;8.050;2022-10-16T11:09:58;1.67;;;0.65;;
35276;SDS011;21401;50.878;8.050;2022-10-16T11:12:32;0.73;;;0.50;;
35276;SDS011;21401;50.878;8.050;2022-10-16T11:17:50;1.25;;;0.35;;
35276;SDS011;21401;50.878;8.050;2022-10-16T11:20:24;2.00;;;0.40;;
35276;SDS011;21401;50.878;8.050;2022-10-16T11:22:57;1.08;;;0.28;;
35276;SDS011;21401;50.878;8.050;2022-10-16T11:25:45;1.05;;;0.20;;
35276;SDS011;21401;50.878;8.050;2022-10-16T11:28:14;1.88;;;0.38;;
35276;SDS011;21401;50.878;8.050;2022-10-16T11:30:56;0.93;;;0.50;;
35276;SDS011;21401;50.878;8.050;2022-10-16T11:36:23;1.27;;;0.50;;
35276;SDS011;21401;50.878;8.050;2022-10-16T11:44:16;2.28;;;0.40;;
35276;SDS011;21401;50.878;8.050;2022-10-16T11:49:57;3.75;;;0.28;;
35276;SDS011;21401;50.878;8.050;2022-10-16T11:57:45;3.25;;;0.40;;
35276;SDS011;21401;50.878;8.050;2022-10-16T12:00:21;3.00;;;0.32;;
35276;SDS011;21401;50.878;8.050;2022-10-16T12:03:03;0.47;;;0.40;;
35276;SDS011;21401;50.878;8.050;2022-10-16T12:08:15;3.65;;;0.40;;
35276;SDS011;21401;50.878;8.050;2022-10-16T12:10:45;1.23;;;0.25;;
35276;SDS011;21401;50.878;8.050;2022-10-16T12:13:28;1.85;;;0.52;;
35276;SDS011;21401;50.878;8.050;2022-10-16T12:18:45;1.55;;;0.38;;
35276;SDS011;21401;50.878;8.050;2022-10-16T12:21:13;2.45;;;0.40;;
35276;SDS011;21401;50.878;8.050;2022-10-16T12:26:23;1.58;;;0.47;;
35276;SDS011;21401;50.878;8.050;2022-10-16T12:28:50;2.38;;;0.40;;
35276;SDS011;21401;50.878;8.050;2022-10-16T12:31:19;2.35;;;0.45;;
35276;SDS011;21401;50.878;8.050;2022-10-16T12:34:02;1.45;;;0.35;;
35276;SDS011;21401;50.878;8.050;2022-10-16T12:36:34;1.40;;;0.40;;
35276;SDS011;21401;50.878;8.050;2022-10-16T12:39:00;1.13;;;0.45;;
35276;SDS011;21401;50.878;8.050;2022-10-16T12:41:35;0.30;;;0.20;;
35276;SDS011;21401;50.878;8.050;2022-10-16T12:44:05;4.32;;;0.40;;
35276;SDS011;21401;50.878;8.050;2022-10-16T12:46:46;0.30;;;0.25;;
35276;SDS011;21401;50.878;8.050;2022-10-16T12:51:40;1.98;;;0.38;;
35276;SDS011;21401;50.878;8.050;2022-10-16T12:54:20;1.65;;;0.50;;
35276;SDS011;21401;50.878;8.050;2022-10-16T13:08:35;1.13;;;0.35;;
35276;SDS011;21401;50.878;8.050;2022-10-16T13:25:04;3.50;;;0.40;;
35276;SDS011;21401;50.878;8.050;2022-10-16T13:27:45;0.98;;;0.68;;
35276;SDS011;21401;50.878;8.050;2022-10-16T13:30:19;2.50;;;2.30;;
35276;SDS011;21401;50.878;8.050;2022-10-16T13:32:48;2.80;;;0.50;;
35276;SDS011;21401;50.878;8.050;2022-10-16T13:35:19;2.30;;;0.28;;
35276;SDS011;21401;50.878;8.050;2022-10-16T13:37:45;1.75;;;0.63;;
35276;SDS011;21401;50.878;8.050;2022-10-16T13:40:23;1.70;;;0.57;;
35276;SDS011;21401;50.878;8.050;2022-10-16T13:42:53;1.23;;;0.30;;
35276;SDS011;21401;50.878;8.050;2022-10-16T13:45:20;0.75;;;0.30;;
35276;SDS011;21401;50.878;8.050;2022-10-16T13:47:47;0.90;;;0.30;;
35276;SDS011;21401;50.878;8.050;2022-10-16T13:50:14;1.98;;;0.40;;
35276;SDS011;21401;50.878;8.050;2022-10-16T13:52:44;1.73;;;0.40;;
35276;SDS011;21401;50.878;8.050;2022-10-16T13:55:10;0.57;;;0.50;;
35276;SDS011;21401;50.878;8.050;2022-10-16T13:57:41;0.28;;;0.20;;
35276;SDS011;21401;50.878;8.050;2022-10-16T14:00:20;0.55;;;0.47;;
35276;SDS011;21401;50.878;8.050;2022-10-16T14:02:50;3.08;;;0.85;;
35276;SDS011;21401;50.878;8.050;2022-10-16T14:05:22;6.38;;;0.75;;
35276;SDS011;21401;50.878;8.050;2022-10-16T14:07:49;0.68;;;0.30;;
35276;SDS011;21401;50.878;8.050;2022-10-16T14:10:34;2.75;;;0.40;;
35276;SDS011;21401;50.878;8.050;2022-10-16T14:13:00;4.93;;;0.70;;
35276;SDS011;21401;50.878;8.050;2022-10-16T14:15:29;1.60;;;0.45;;
35276;SDS011;21401;50.878;8.050;2022-10-16T14:17:56;1.45;;;0.40;;
35276;SDS011;21401;50.878;8.050;2022-10-16T14:20:26;3.13;;;0.38;;
35276;SDS011;21401;50.878;8.050;2022-10-16T14:23:01;4.07;;;0.57;;
35276;SDS011;21401;50.878;8.050;2022-10-16T14:25:30;1.67;;;0.40;;
35276;SDS011;21401;50.878;8.050;2022-10-16T14:28:01;3.55;;;0.45;;
35276;SDS011;21401;50.878;8.050;2022-10-16T14:36:04;3.25;;;0.40;;
35276;SDS011;21401;50.878;8.050;2022-10-16T14:38:39;0.80;;;0.30;;
35276;SDS011;21401;50.878;8.050;2022-10-16T14:41:14;2.25;;;0.90;;
35276;SDS011;21401;50.878;8.050;2022-10-16T14:43:41;0.95;;;0.28;;
35276;SDS011;21401;50.878;8.050;2022-10-16T14:46:21;0.47;;;0.25;;
35276;SDS011;21401;50.878;8.050;2022-10-16T14:49:00;4.82;;;0.30;;
35276;SDS011;21401;50.878;8.050;2022-10-16T14:51:30;0.95;;;0.20;;
35276;SDS011;21401;50.878;8.050;2022-10-16T14:53:55;1.95;;;0.30;;
35276;SDS011;21401;50.878;8.050;2022-10-16T14:56:22;1.58;;;0.57;;
35276;SDS011;21401;50.878;8.050;2022-10-16T14:58:52;3.13;;;0.68;;
35276;SDS011;21401;50.878;8.050;2022-10-16T15:01:20;2.67;;;0.60;;
35276;SDS011;21401;50.878;8.050;2022-10-16T15:03:46;2.05;;;0.30;;
35276;SDS011;21401;50.878;8.050;2022-10-16T15:06:15;2.22;;;0.30;;
35276;SDS011;21401;50.878;8.050;2022-10-16T15:08:41;1.23;;;0.30;;
35276;SDS011;21401;50.878;8.050;2022-10-16T15:11:11;1.85;;;0.52;;
35276;SDS011;21401;50.878;8.050;2022-10-16T15:13:41;1.42;;;0.63;;
35276;SDS011;21401;50.878;8.050;2022-10-16T15:16:16;4.85;;;0.60;;
35276;SDS011;21401;50.878;8.050;2022-10-16T15:18:42;0.98;;;0.40;;
35276;SDS011;21401;50.878;8.050;2022-10-16T15:21:26;3.00;;;0.45;;
35276;SDS011;21401;50.878;8.050;2022-10-16T15:23:56;1.40;;;0.50;;
35276;SDS011;21401;50.878;8.050;2022-10-16T15:26:26;1.92;;;0.60;;
35276;SDS011;21401;50.878;8.050;2022-10-16T15:28:53;1.48;;;0.57;;
35276;SDS011;21401;50.878;8.050;2022-10-16T15:31:18;2.85;;;0.30;;
35276;SDS011;21401;50.878;8.050;2022-10-16T15:33:46;1.73;;;0.40;;
35276;SDS011;21401;50.878;8.050;2022-10-16T15:36:23;1.63;;;0.50;;
35276;SDS011;21401;50.878;8.050;2022-10-16T15:38:53;7.50;;;0.50;;
35276;SDS011;21401;50.878;8.050;2022-10-16T15:41:18;1.05;;;0.50;;
35276;SDS011;21401;50.878;8.050;2022-10-16T15:43:44;1.85;;;0.22;;
35276;SDS011;21401;50.878;8.050;2022-10-16T15:46:13;1.42;;;0.30;;
35276;SDS011;21401;50.878;8.050;2022-10-16T15:48:43;1.17;;;0.40;;
35276;SDS011;21401;50.878;8.050;2022-10-16T15:51:09;3.50;;;0.77;;
35276;SDS011;21401;50.878;8.050;2022-10-16T15:53:35;1.85;;;0.40;;
35276;SDS011;21401;50.878;8.050;2022-10-16T15:56:05;3.60;;;0.75;;
35276;SDS011;21401;50.878;8.050;2022-10-16T15:58:32;1.17;;;0.50;;
35276;SDS011;21401;50.878;8.050;2022-10-16T16:01:00;1.17;;;0.63;;
35276;SDS011;21401;50.878;8.050;2022-10-16T16:03:28;2.78;;;0.68;;
35276;SDS011;21401;50.878;8.050;2022-10-16T16:05:57;1.38;;;0.57;;
35276;SDS011;21401;50.878;8.050;2022-10-16T16:08:23;1.98;;;0.60;;
35276;SDS011;21401;50.878;8.050;2022-10-16T16:11:08;0.57;;;0.40;;
35276;SDS011;21401;50.878;8.050;2022-10-16T16:13:35;2.10;;;0.47;;
35276;SDS011;21401;50.878;8.050;2022-10-16T16:16:05;5.78;;;0.60;;
35276;SDS011;21401;50.878;8.050;2022-10-16T16:18:32;2.45;;;0.70;;
35276;SDS011;21401;50.878;8.050;2022-10-16T16:20:58;6.00;;;0.60;;
35276;SDS011;21401;50.878;8.050;2022-10-16T16:23:23;5.10;;;0.80;;
35276;SDS011;21401;50.878;8.050;2022-10-16T16:28:51;6.13;;;0.43;;
35276;SDS011;21401;50.878;8.050;2022-10-16T16:31:18;4.25;;;0.60;;
35276;SDS011;21401;50.878;8.050;2022-10-16T16:33:43;1.30;;;0.60;;
35276;SDS011;21401;50.878;8.050;2022-10-16T16:36:09;6.68;;;0.93;;
35276;SDS011;21401;50.878;8.050;2022-10-16T16:38:34;3.03;;;0.45;;
35276;SDS011;21401;50.878;8.050;2022-10-16T16:41:16;2.55;;;0.50;;
35276;SDS011;21401;50.878;8.050;2022-10-16T16:43:43;1.23;;;0.50;;
35276;SDS011;21401;50.878;8.050;2022-10-16T16:46:08;3.65;;;0.75;;
35276;SDS011;21401;50.878;8.050;2022-10-16T16:48:37;0.68;;;0.55;;
35276;SDS011;21401;50.878;8.050;2022-10-16T16:51:04;2.15;;;0.45;;
35276;SDS011;21401;50.878;8.050;2022-10-16T16:53:36;8.20;;;0.80;;
35276;SDS011;21401;50.878;8.050;2022-10-16T16:56:04;4.50;;;0.70;;
35276;SDS011;21401;50.878;8.050;2022-10-16T16:58:33;1.27;;;0.60;;
35276;SDS011;21401;50.878;8.050;2022-10-16T17:00:59;8.10;;;2.70;;
35276;SDS011;21401;50.878;8.050;2022-10-16T17:03:30;6.50;;;0.98;;
35276;SDS011;21401;50.878;8.050;2022-10-16T17:06:02;5.25;;;0.75;;
35276;SDS011;21401;50.878;8.050;2022-10-16T17:08:32;3.65;;;1.25;;
35276;SDS011;21401;50.878;8.050;2022-10-16T17:11:01;7.78;;;2.80;;
35276;SDS011;21401;50.878;8.050;2022-10-16T17:13:28;1.92;;;0.90;;